sensor_id;sensor_type;location;lat;lon;timestamp;P1;durP1;ratioP1;P2;durP2;ratioP2
76138;SDS011;65138;50.946;7.074;2023-03-03T00:00:12;4.22;;;3.58;;
76138;SDS011;65138;50.946;7.074;2023-03-03T00:02:38;5.30;;;2.83;;
76138;SDS011;65138;50.946;7.074;2023-03-03T00:05:04;4.43;;;2.53;;
76138;SDS011;65138;50.946;7.074;2023-03-03T00:07:30;4.93;;;2.80;;
76138;SDS011;65138;50.946;7.074;2023-03-03T00:09:56;4.38;;;2.63;;
76138;SDS011;65138;50.946;7.074;2023-03-03T00:12:26;4.38;;;2.53;;
76138;SDS011;65138;50.946;7.074;2023-03-03T00:14:53;4.03;;;2.22;;
76138;SDS011;65138;50.946;7.074;2023-03-03T00:17:20;4.50;;;2.53;;
76138;SDS011;65138;50.946;7.074;2023-03-03T00:19:48;5.05;;;2.88;;
76138;SDS011;65138;50.946;7.074;2023-03-03T00:22:17;4.53;;;2.75;;
76138;SDS011;65138;50.946;7.074;2023-03-03T00:25:20;4.88;;;2.72;;
76138;SDS011;65138;50.946;7.074;2023-03-03T00:27:53;4.00;;;2.55;;
76138;SDS011;65138;50.946;7.074;2023-03-03T00:30:23;5.30;;;2.92;;
76138;SDS011;65138;50.946;7.074;2023-03-03T00:32:50;6.28;;;3.40;;
76138;SDS011;65138;50.946;7.074;2023-03-03T00:37:54;4.82;;;2.88;;
76138;SDS011;65138;50.946;7.074;2023-03-03T00:43:19;4.38;;;2.90;;
76138;SDS011;65138;50.946;7.074;2023-03-03T00:45:54;4.43;;;2.83;;
76138;SDS011;65138;50.946;7.074;2023-03-03T00:53:53;4.68;;;2.92;;
76138;SDS011;65138;50.946;7.074;2023-03-03T00:56:19;4.85;;;2.53;;
76138;SDS011;65138;50.946;7.074;2023-03-03T00:58:45;4.30;;;2.60;;
76138;SDS011;65138;50.946;7.074;2023-03-03T01:01:14;4.55;;;2.33;;
76138;SDS011;65138;50.946;7.074;2023-03-03T01:03:44;4.82;;;2.88;;
76138;SDS011;65138;50.946;7.074;2023-03-03T01:06:10;4.35;;;2.83;;
76138;SDS011;65138;50.946;7.074;2023-03-03T01:08:37;4.68;;;2.65;;
76138;SDS011;65138;50.946;7.074;2023-03-03T01:11:03;5.00;;;2.42;;
76138;SDS011;65138;50.946;7.074;2023-03-03T01:13:39;5.35;;;3.10;;
76138;SDS011;65138;50.946;7.074;2023-03-03T01:16:07;4.88;;;2.97;;
76138;SDS011;65138;50.946;7.074;2023-03-03T01:18:33;4.22;;;2.67;;
76138;SDS011;65138;50.946;7.074;2023-03-03T01:21:00;6.65;;;2.70;;
76138;SDS011;65138;50.946;7.074;2023-03-03T01:23:26;4.72;;;2.85;;
76138;SDS011;65138;50.946;7.074;2023-03-03T01:25:52;6.07;;;2.97;;
76138;SDS011;65138;50.946;7.074;2023-03-03T01:28:17;5.10;;;3.08;;
76138;SDS011;65138;50.946;7.074;2023-03-03T01:30:43;5.28;;;3.08;;
76138;SDS011;65138;50.946;7.074;2023-03-03T01:33:09;4.65;;;3.08;;
76138;SDS011;65138;50.946;7.074;2023-03-03T01:35:35;5.18;;;3.33;;
76138;SDS011;65138;50.946;7.074;2023-03-03T01:38:01;4.60;;;3.15;;
76138;SDS011;65138;50.946;7.074;2023-03-03T01:40:28;4.18;;;2.90;;
76138;SDS011;65138;50.946;7.074;2023-03-03T01:42:55;5.07;;;2.92;;
76138;SDS011;65138;50.946;7.074;2023-03-03T01:45:27;5.32;;;3.10;;
76138;SDS011;65138;50.946;7.074;2023-03-03T01:53:50;6.13;;;3.10;;
76138;SDS011;65138;50.946;7.074;2023-03-03T01:56:18;4.72;;;3.00;;
76138;SDS011;65138;50.946;7.074;2023-03-03T01:58:45;3.90;;;2.33;;
76138;SDS011;65138;50.946;7.074;2023-03-03T02:03:43;5.78;;;3.00;;
76138;SDS011;65138;50.946;7.074;2023-03-03T02:06:10;4.63;;;2.83;;
76138;SDS011;65138;50.946;7.074;2023-03-03T02:11:26;6.28;;;3.35;;
76138;SDS011;65138;50.946;7.074;2023-03-03T02:13:55;6.30;;;4.13;;
76138;SDS011;65138;50.946;7.074;2023-03-03T02:16:21;5.78;;;3.22;;
76138;SDS011;65138;50.946;7.074;2023-03-03T02:18:47;4.80;;;3.05;;
76138;SDS011;65138;50.946;7.074;2023-03-03T02:21:17;6.05;;;3.47;;
76138;SDS011;65138;50.946;7.074;2023-03-03T02:26:31;5.05;;;3.25;;
76138;SDS011;65138;50.946;7.074;2023-03-03T02:29:04;4.32;;;3.08;;
76138;SDS011;65138;50.946;7.074;2023-03-03T02:31:30;7.55;;;4.50;;
76138;SDS011;65138;50.946;7.074;2023-03-03T02:33:56;5.03;;;2.92;;
76138;SDS011;65138;50.946;7.074;2023-03-03T02:36:23;4.18;;;2.90;;
76138;SDS011;65138;50.946;7.074;2023-03-03T02:39:00;6.40;;;3.10;;
76138;SDS011;65138;50.946;7.074;2023-03-03T02:44:17;5.93;;;3.60;;
76138;SDS011;65138;50.946;7.074;2023-03-03T02:46:46;5.75;;;3.70;;
76138;SDS011;65138;50.946;7.074;2023-03-03T02:49:14;6.75;;;3.83;;
76138;SDS011;65138;50.946;7.074;2023-03-03T02:51:42;5.45;;;3.13;;
76138;SDS011;65138;50.946;7.074;2023-03-03T02:54:08;5.40;;;3.38;;
76138;SDS011;65138;50.946;7.074;2023-03-03T02:56:36;6.28;;;3.30;;
76138;SDS011;65138;50.946;7.074;2023-03-03T02:59:02;4.90;;;3.35;;
76138;SDS011;65138;50.946;7.074;2023-03-03T03:01:31;5.07;;;3.25;;
76138;SDS011;65138;50.946;7.074;2023-03-03T03:04:04;5.45;;;3.17;;
76138;SDS011;65138;50.946;7.074;2023-03-03T03:06:35;5.20;;;3.25;;
76138;SDS011;65138;50.946;7.074;2023-03-03T03:09:02;5.75;;;3.20;;
76138;SDS011;65138;50.946;7.074;2023-03-03T03:11:30;5.05;;;3.60;;
76138;SDS011;65138;50.946;7.074;2023-03-03T03:13:56;5.35;;;3.50;;
76138;SDS011;65138;50.946;7.074;2023-03-03T03:16:22;6.90;;;4.50;;
76138;SDS011;65138;50.946;7.074;2023-03-03T03:18:48;6.00;;;3.35;;
76138;SDS011;65138;50.946;7.074;2023-03-03T03:21:17;5.97;;;3.55;;
76138;SDS011;65138;50.946;7.074;2023-03-03T03:23:43;5.05;;;3.35;;
76138;SDS011;65138;50.946;7.074;2023-03-03T03:26:10;5.43;;;3.38;;
76138;SDS011;65138;50.946;7.074;2023-03-03T03:28:36;5.05;;;3.35;;
76138;SDS011;65138;50.946;7.074;2023-03-03T03:31:03;5.78;;;3.42;;
76138;SDS011;65138;50.946;7.074;2023-03-03T03:33:29;5.88;;;3.50;;
76138;SDS011;65138;50.946;7.074;2023-03-03T03:35:56;6.03;;;3.88;;
76138;SDS011;65138;50.946;7.074;2023-03-03T03:38:23;5.32;;;2.97;;
76138;SDS011;65138;50.946;7.074;2023-03-03T03:40:51;7.50;;;3.80;;
76138;SDS011;65138;50.946;7.074;2023-03-03T03:43:18;5.53;;;3.22;;
76138;SDS011;65138;50.946;7.074;2023-03-03T03:45:44;6.07;;;4.35;;
76138;SDS011;65138;50.946;7.074;2023-03-03T03:48:11;5.28;;;3.30;;
76138;SDS011;65138;50.946;7.074;2023-03-03T03:50:37;5.45;;;3.50;;
76138;SDS011;65138;50.946;7.074;2023-03-03T03:53:04;5.85;;;3.45;;
76138;SDS011;65138;50.946;7.074;2023-03-03T03:55:31;5.43;;;3.42;;
76138;SDS011;65138;50.946;7.074;2023-03-03T03:57:57;6.50;;;3.78;;
76138;SDS011;65138;50.946;7.074;2023-03-03T04:00:23;5.65;;;3.95;;
76138;SDS011;65138;50.946;7.074;2023-03-03T04:02:54;5.50;;;3.28;;
76138;SDS011;65138;50.946;7.074;2023-03-03T04:05:20;5.20;;;3.47;;
76138;SDS011;65138;50.946;7.074;2023-03-03T04:07:46;4.93;;;3.17;;
76138;SDS011;65138;50.946;7.074;2023-03-03T04:10:12;4.95;;;3.38;;
76138;SDS011;65138;50.946;7.074;2023-03-03T04:12:38;5.85;;;3.95;;
76138;SDS011;65138;50.946;7.074;2023-03-03T04:15:07;6.63;;;4.13;;
76138;SDS011;65138;50.946;7.074;2023-03-03T04:17:35;5.95;;;3.42;;
76138;SDS011;65138;50.946;7.074;2023-03-03T04:20:01;5.63;;;3.85;;
76138;SDS011;65138;50.946;7.074;2023-03-03T04:22:29;5.65;;;4.22;;
76138;SDS011;65138;50.946;7.074;2023-03-03T04:24:58;6.10;;;3.92;;
76138;SDS011;65138;50.946;7.074;2023-03-03T04:27:25;6.53;;;3.90;;
76138;SDS011;65138;50.946;7.074;2023-03-03T04:29:51;5.90;;;3.55;;
76138;SDS011;65138;50.946;7.074;2023-03-03T04:32:18;5.32;;;3.42;;
76138;SDS011;65138;50.946;7.074;2023-03-03T04:34:44;5.10;;;3.53;;
76138;SDS011;65138;50.946;7.074;2023-03-03T04:37:10;5.70;;;3.70;;
76138;SDS011;65138;50.946;7.074;2023-03-03T04:39:35;6.15;;;3.53;;
76138;SDS011;65138;50.946;7.074;2023-03-03T04:42:01;6.80;;;3.80;;
76138;SDS011;65138;50.946;7.074;2023-03-03T04:44:27;4.47;;;3.30;;
76138;SDS011;65138;50.946;7.074;2023-03-03T04:46:53;6.60;;;3.85;;
76138;SDS011;65138;50.946;7.074;2023-03-03T04:49:19;6.03;;;4.75;;
76138;SDS011;65138;50.946;7.074;2023-03-03T04:51:44;5.60;;;3.85;;
76138;SDS011;65138;50.946;7.074;2023-03-03T04:54:10;5.72;;;3.35;;
76138;SDS011;65138;50.946;7.074;2023-03-03T04:56:36;5.72;;;4.15;;
76138;SDS011;65138;50.946;7.074;2023-03-03T04:59:02;5.80;;;3.60;;
76138;SDS011;65138;50.946;7.074;2023-03-03T05:01:28;6.30;;;4.60;;
76138;SDS011;65138;50.946;7.074;2023-03-03T05:03:54;5.82;;;3.92;;
76138;SDS011;65138;50.946;7.074;2023-03-03T05:06:20;5.57;;;3.30;;
76138;SDS011;65138;50.946;7.074;2023-03-03T05:08:46;5.45;;;3.60;;
76138;SDS011;65138;50.946;7.074;2023-03-03T05:11:11;5.38;;;3.72;;
76138;SDS011;65138;50.946;7.074;2023-03-03T05:13:38;4.32;;;2.78;;
76138;SDS011;65138;50.946;7.074;2023-03-03T05:16:03;4.85;;;3.63;;
76138;SDS011;65138;50.946;7.074;2023-03-03T05:18:29;6.03;;;4.25;;
76138;SDS011;65138;50.946;7.074;2023-03-03T05:20:55;5.32;;;3.40;;
76138;SDS011;65138;50.946;7.074;2023-03-03T05:23:21;5.15;;;3.53;;
76138;SDS011;65138;50.946;7.074;2023-03-03T05:25:47;5.43;;;4.28;;
76138;SDS011;65138;50.946;7.074;2023-03-03T05:28:13;5.25;;;3.05;;
76138;SDS011;65138;50.946;7.074;2023-03-03T05:30:39;4.65;;;3.45;;
76138;SDS011;65138;50.946;7.074;2023-03-03T05:33:05;6.05;;;3.67;;
76138;SDS011;65138;50.946;7.074;2023-03-03T05:35:31;4.53;;;3.67;;
76138;SDS011;65138;50.946;7.074;2023-03-03T05:37:57;4.80;;;3.38;;
76138;SDS011;65138;50.946;7.074;2023-03-03T05:40:23;4.43;;;3.20;;
76138;SDS011;65138;50.946;7.074;2023-03-03T05:42:50;4.53;;;3.10;;
76138;SDS011;65138;50.946;7.074;2023-03-03T05:45:16;5.10;;;3.38;;
76138;SDS011;65138;50.946;7.074;2023-03-03T05:47:45;5.38;;;3.38;;
76138;SDS011;65138;50.946;7.074;2023-03-03T05:50:11;4.65;;;3.10;;
76138;SDS011;65138;50.946;7.074;2023-03-03T05:52:37;5.22;;;3.33;;
76138;SDS011;65138;50.946;7.074;2023-03-03T05:55:03;5.10;;;3.10;;
76138;SDS011;65138;50.946;7.074;2023-03-03T05:57:29;5.38;;;3.33;;
76138;SDS011;65138;50.946;7.074;2023-03-03T05:59:55;4.57;;;2.90;;
76138;SDS011;65138;50.946;7.074;2023-03-03T06:02:21;4.60;;;2.80;;
76138;SDS011;65138;50.946;7.074;2023-03-03T06:04:47;4.82;;;3.33;;
76138;SDS011;65138;50.946;7.074;2023-03-03T06:07:12;4.30;;;2.83;;
76138;SDS011;65138;50.946;7.074;2023-03-03T06:09:41;4.43;;;2.72;;
76138;SDS011;65138;50.946;7.074;2023-03-03T06:12:06;5.03;;;3.17;;
76138;SDS011;65138;50.946;7.074;2023-03-03T06:14:32;4.80;;;2.92;;
76138;SDS011;65138;50.946;7.074;2023-03-03T06:16:57;5.03;;;3.20;;
76138;SDS011;65138;50.946;7.074;2023-03-03T06:19:23;8.75;;;5.00;;
76138;SDS011;65138;50.946;7.074;2023-03-03T06:21:49;6.00;;;4.00;;
76138;SDS011;65138;50.946;7.074;2023-03-03T06:24:14;9.77;;;4.88;;
76138;SDS011;65138;50.946;7.074;2023-03-03T06:26:40;8.82;;;4.30;;
76138;SDS011;65138;50.946;7.074;2023-03-03T06:29:06;11.10;;;6.05;;
76138;SDS011;65138;50.946;7.074;2023-03-03T06:31:32;14.90;;;9.02;;
76138;SDS011;65138;50.946;7.074;2023-03-03T06:33:57;15.77;;;9.40;;
76138;SDS011;65138;50.946;7.074;2023-03-03T06:36:23;15.13;;;9.88;;
76138;SDS011;65138;50.946;7.074;2023-03-03T06:38:49;16.73;;;8.85;;
76138;SDS011;65138;50.946;7.074;2023-03-03T06:41:15;13.85;;;8.52;;
76138;SDS011;65138;50.946;7.074;2023-03-03T06:43:41;17.63;;;7.50;;
76138;SDS011;65138;50.946;7.074;2023-03-03T06:46:06;12.18;;;6.15;;
76138;SDS011;65138;50.946;7.074;2023-03-03T06:48:32;10.48;;;4.68;;
76138;SDS011;65138;50.946;7.074;2023-03-03T06:50:59;9.77;;;5.07;;
76138;SDS011;65138;50.946;7.074;2023-03-03T06:53:26;11.73;;;6.05;;
76138;SDS011;65138;50.946;7.074;2023-03-03T06:55:55;11.57;;;5.70;;
76138;SDS011;65138;50.946;7.074;2023-03-03T06:58:22;12.73;;;5.28;;
76138;SDS011;65138;50.946;7.074;2023-03-03T07:03:31;10.77;;;4.53;;
76138;SDS011;65138;50.946;7.074;2023-03-03T07:05:58;12.05;;;6.75;;
76138;SDS011;65138;50.946;7.074;2023-03-03T07:08:25;17.63;;;7.72;;
76138;SDS011;65138;50.946;7.074;2023-03-03T07:10:55;12.25;;;6.80;;
76138;SDS011;65138;50.946;7.074;2023-03-03T07:13:23;14.70;;;6.70;;
76138;SDS011;65138;50.946;7.074;2023-03-03T07:15:53;15.95;;;6.72;;
76138;SDS011;65138;50.946;7.074;2023-03-03T07:18:34;11.50;;;5.40;;
76138;SDS011;65138;50.946;7.074;2023-03-03T07:23:56;9.10;;;4.53;;
76138;SDS011;65138;50.946;7.074;2023-03-03T07:26:25;7.78;;;4.20;;
76138;SDS011;65138;50.946;7.074;2023-03-03T07:31:34;9.38;;;3.67;;
76138;SDS011;65138;50.946;7.074;2023-03-03T07:34:04;7.97;;;3.92;;
76138;SDS011;65138;50.946;7.074;2023-03-03T07:36:39;9.80;;;4.43;;
76138;SDS011;65138;50.946;7.074;2023-03-03T07:39:39;9.30;;;4.10;;
76138;SDS011;65138;50.946;7.074;2023-03-03T07:42:17;12.13;;;3.92;;
76138;SDS011;65138;50.946;7.074;2023-03-03T07:45:00;10.18;;;3.22;;
76138;SDS011;65138;50.946;7.074;2023-03-03T07:47:30;9.13;;;3.60;;
76138;SDS011;65138;50.946;7.074;2023-03-03T07:50:00;4.72;;;2.67;;
76138;SDS011;65138;50.946;7.074;2023-03-03T07:52:43;6.10;;;2.97;;
76138;SDS011;65138;50.946;7.074;2023-03-03T07:55:32;11.55;;;4.18;;
76138;SDS011;65138;50.946;7.074;2023-03-03T08:03:04;13.85;;;3.03;;
76138;SDS011;65138;50.946;7.074;2023-03-03T08:05:37;12.77;;;4.30;;
76138;SDS011;65138;50.946;7.074;2023-03-03T08:10:40;9.80;;;3.65;;
76138;SDS011;65138;50.946;7.074;2023-03-03T08:13:21;12.80;;;4.45;;
76138;SDS011;65138;50.946;7.074;2023-03-03T08:18:34;8.77;;;3.45;;
76138;SDS011;65138;50.946;7.074;2023-03-03T08:21:01;9.18;;;3.15;;
76138;SDS011;65138;50.946;7.074;2023-03-03T08:23:31;8.75;;;3.00;;
76138;SDS011;65138;50.946;7.074;2023-03-03T08:25:57;5.28;;;2.83;;
76138;SDS011;65138;50.946;7.074;2023-03-03T08:28:22;8.07;;;2.95;;
76138;SDS011;65138;50.946;7.074;2023-03-03T08:30:48;8.07;;;3.90;;
76138;SDS011;65138;50.946;7.074;2023-03-03T08:33:14;8.88;;;3.05;;
76138;SDS011;65138;50.946;7.074;2023-03-03T08:35:40;8.60;;;2.65;;
76138;SDS011;65138;50.946;7.074;2023-03-03T08:38:06;8.88;;;3.42;;
76138;SDS011;65138;50.946;7.074;2023-03-03T08:40:33;13.93;;;3.13;;
76138;SDS011;65138;50.946;7.074;2023-03-03T08:42:59;12.32;;;3.65;;
76138;SDS011;65138;50.946;7.074;2023-03-03T08:45:25;15.05;;;5.03;;
76138;SDS011;65138;50.946;7.074;2023-03-03T08:47:51;9.85;;;3.58;;
76138;SDS011;65138;50.946;7.074;2023-03-03T08:50:17;9.35;;;3.20;;
76138;SDS011;65138;50.946;7.074;2023-03-03T08:52:43;12.30;;;3.80;;
76138;SDS011;65138;50.946;7.074;2023-03-03T08:55:09;6.78;;;3.25;;
76138;SDS011;65138;50.946;7.074;2023-03-03T08:57:35;8.50;;;2.78;;
76138;SDS011;65138;50.946;7.074;2023-03-03T09:00:01;6.57;;;2.70;;
76138;SDS011;65138;50.946;7.074;2023-03-03T09:02:27;5.88;;;2.53;;
76138;SDS011;65138;50.946;7.074;2023-03-03T09:04:52;7.32;;;2.90;;
76138;SDS011;65138;50.946;7.074;2023-03-03T09:07:18;7.28;;;2.20;;
76138;SDS011;65138;50.946;7.074;2023-03-03T09:09:43;8.52;;;2.70;;
76138;SDS011;65138;50.946;7.074;2023-03-03T09:12:16;5.68;;;2.13;;
76138;SDS011;65138;50.946;7.074;2023-03-03T09:14:46;4.47;;;2.58;;
76138;SDS011;65138;50.946;7.074;2023-03-03T09:17:21;5.88;;;2.15;;
76138;SDS011;65138;50.946;7.074;2023-03-03T09:19:58;6.97;;;2.30;;
76138;SDS011;65138;50.946;7.074;2023-03-03T09:22:35;5.80;;;2.60;;
76138;SDS011;65138;50.946;7.074;2023-03-03T09:25:02;5.50;;;2.20;;
76138;SDS011;65138;50.946;7.074;2023-03-03T09:27:45;5.05;;;1.60;;
76138;SDS011;65138;50.946;7.074;2023-03-03T09:33:22;4.82;;;2.08;;
76138;SDS011;65138;50.946;7.074;2023-03-03T09:36:22;4.00;;;1.92;;
76138;SDS011;65138;50.946;7.074;2023-03-03T09:38:59;3.58;;;1.63;;
76138;SDS011;65138;50.946;7.074;2023-03-03T09:41:33;4.20;;;2.17;;
76138;SDS011;65138;50.946;7.074;2023-03-03T09:44:10;6.22;;;1.83;;
76138;SDS011;65138;50.946;7.074;2023-03-03T09:47:01;6.72;;;2.83;;
76138;SDS011;65138;50.946;7.074;2023-03-03T09:52:43;4.68;;;1.55;;
76138;SDS011;65138;50.946;7.074;2023-03-03T09:55:41;4.00;;;2.13;;
76138;SDS011;65138;50.946;7.074;2023-03-03T09:58:14;4.13;;;2.00;;
76138;SDS011;65138;50.946;7.074;2023-03-03T10:04:10;4.13;;;1.98;;
76138;SDS011;65138;50.946;7.074;2023-03-03T10:09:45;4.97;;;1.88;;
76138;SDS011;65138;50.946;7.074;2023-03-03T10:17:36;3.10;;;1.38;;
76138;SDS011;65138;50.946;7.074;2023-03-03T10:23:05;3.78;;;1.73;;
76138;SDS011;65138;50.946;7.074;2023-03-03T10:34:03;4.75;;;1.90;;
76138;SDS011;65138;50.946;7.074;2023-03-03T10:36:40;2.63;;;1.30;;
76138;SDS011;65138;50.946;7.074;2023-03-03T10:41:55;3.50;;;1.55;;
76138;SDS011;65138;50.946;7.074;2023-03-03T10:44:52;4.00;;;1.90;;
76138;SDS011;65138;50.946;7.074;2023-03-03T10:50:26;4.88;;;2.75;;
76138;SDS011;65138;50.946;7.074;2023-03-03T10:58:30;3.78;;;2.40;;
76138;SDS011;65138;50.946;7.074;2023-03-03T11:06:50;4.63;;;2.03;;
76138;SDS011;65138;50.946;7.074;2023-03-03T11:20:55;3.28;;;1.40;;
76138;SDS011;65138;50.946;7.074;2023-03-03T11:37:23;2.88;;;1.40;;
76138;SDS011;65138;50.946;7.074;2023-03-03T11:39:55;4.00;;;2.05;;
76138;SDS011;65138;50.946;7.074;2023-03-03T11:42:29;4.57;;;2.33;;
76138;SDS011;65138;50.946;7.074;2023-03-03T11:45:30;3.88;;;2.15;;
76138;SDS011;65138;50.946;7.074;2023-03-03T11:48:15;4.03;;;2.20;;
76138;SDS011;65138;50.946;7.074;2023-03-03T11:55:56;16.95;;;9.50;;
76138;SDS011;65138;50.946;7.074;2023-03-03T11:58:30;18.02;;;9.05;;
76138;SDS011;65138;50.946;7.074;2023-03-03T12:11:48;14.02;;;8.95;;
76138;SDS011;65138;50.946;7.074;2023-03-03T12:22:26;18.52;;;11.20;;
76138;SDS011;65138;50.946;7.074;2023-03-03T12:25:07;17.08;;;9.32;;
76138;SDS011;65138;50.946;7.074;2023-03-03T12:27:54;16.48;;;9.25;;
76138;SDS011;65138;50.946;7.074;2023-03-03T12:33:37;18.88;;;9.23;;
76138;SDS011;65138;50.946;7.074;2023-03-03T12:36:13;14.85;;;7.35;;
76138;SDS011;65138;50.946;7.074;2023-03-03T12:38:50;18.60;;;8.27;;
76138;SDS011;65138;50.946;7.074;2023-03-03T12:41:58;12.25;;;6.15;;
76138;SDS011;65138;50.946;7.074;2023-03-03T12:44:55;13.98;;;5.60;;
76138;SDS011;65138;50.946;7.074;2023-03-03T12:47:37;8.00;;;4.40;;
76138;SDS011;65138;50.946;7.074;2023-03-03T12:52:49;8.20;;;4.75;;
76138;SDS011;65138;50.946;7.074;2023-03-03T13:03:48;6.22;;;3.47;;
76138;SDS011;65138;50.946;7.074;2023-03-03T13:06:45;8.68;;;3.60;;
76138;SDS011;65138;50.946;7.074;2023-03-03T13:09:24;6.85;;;3.50;;
76138;SDS011;65138;50.946;7.074;2023-03-03T13:12:16;7.95;;;3.40;;
76138;SDS011;65138;50.946;7.074;2023-03-03T13:21:08;7.78;;;4.57;;
76138;SDS011;65138;50.946;7.074;2023-03-03T13:27:06;6.43;;;3.28;;
76138;SDS011;65138;50.946;7.074;2023-03-03T13:29:40;13.73;;;5.60;;
76138;SDS011;65138;50.946;7.074;2023-03-03T13:32:08;10.60;;;5.85;;
76138;SDS011;65138;50.946;7.074;2023-03-03T13:35:05;13.23;;;6.22;;
76138;SDS011;65138;50.946;7.074;2023-03-03T13:37:37;10.48;;;5.68;;
76138;SDS011;65138;50.946;7.074;2023-03-03T13:42:39;9.68;;;4.57;;
76138;SDS011;65138;50.946;7.074;2023-03-03T13:45:06;15.68;;;4.47;;
76138;SDS011;65138;50.946;7.074;2023-03-03T13:50:46;19.05;;;10.98;;
76138;SDS011;65138;50.946;7.074;2023-03-03T14:06:59;14.95;;;7.82;;
76138;SDS011;65138;50.946;7.074;2023-03-03T14:12:20;19.75;;;8.48;;
76138;SDS011;65138;50.946;7.074;2023-03-03T14:14:58;14.30;;;7.57;;
76138;SDS011;65138;50.946;7.074;2023-03-03T14:20:21;14.13;;;6.43;;
76138;SDS011;65138;50.946;7.074;2023-03-03T14:23:13;12.10;;;6.07;;
76138;SDS011;65138;50.946;7.074;2023-03-03T14:28:19;12.38;;;6.20;;
76138;SDS011;65138;50.946;7.074;2023-03-03T14:30:46;10.82;;;5.80;;
76138;SDS011;65138;50.946;7.074;2023-03-03T14:35:42;13.82;;;7.15;;
76138;SDS011;65138;50.946;7.074;2023-03-03T14:41:11;16.15;;;7.43;;
76138;SDS011;65138;50.946;7.074;2023-03-03T14:43:37;12.25;;;6.35;;
76138;SDS011;65138;50.946;7.074;2023-03-03T14:48:52;12.25;;;6.03;;
76138;SDS011;65138;50.946;7.074;2023-03-03T14:53:57;10.43;;;5.32;;
76138;SDS011;65138;50.946;7.074;2023-03-03T14:56:27;11.10;;;5.45;;
76138;SDS011;65138;50.946;7.074;2023-03-03T15:01:44;10.18;;;6.32;;
76138;SDS011;65138;50.946;7.074;2023-03-03T15:06:42;9.93;;;4.80;;
76138;SDS011;65138;50.946;7.074;2023-03-03T15:11:59;10.27;;;4.43;;
76138;SDS011;65138;50.946;7.074;2023-03-03T15:14:36;8.25;;;4.15;;
76138;SDS011;65138;50.946;7.074;2023-03-03T15:17:18;10.85;;;4.72;;
76138;SDS011;65138;50.946;7.074;2023-03-03T15:19:51;11.35;;;6.47;;
76138;SDS011;65138;50.946;7.074;2023-03-03T15:25:08;10.98;;;5.28;;
76138;SDS011;65138;50.946;7.074;2023-03-03T15:27:43;8.90;;;4.75;;
76138;SDS011;65138;50.946;7.074;2023-03-03T15:30:34;11.30;;;5.03;;
76138;SDS011;65138;50.946;7.074;2023-03-03T15:33:22;9.88;;;4.82;;
76138;SDS011;65138;50.946;7.074;2023-03-03T15:36:08;10.02;;;5.07;;
76138;SDS011;65138;50.946;7.074;2023-03-03T15:38:51;8.88;;;4.38;;
76138;SDS011;65138;50.946;7.074;2023-03-03T15:41:46;8.70;;;4.47;;
76138;SDS011;65138;50.946;7.074;2023-03-03T15:44:43;8.52;;;4.18;;
76138;SDS011;65138;50.946;7.074;2023-03-03T16:03:35;9.25;;;5.78;;
76138;SDS011;65138;50.946;7.074;2023-03-03T16:06:05;8.35;;;4.30;;
76138;SDS011;65138;50.946;7.074;2023-03-03T16:08:39;7.90;;;4.15;;
76138;SDS011;65138;50.946;7.074;2023-03-03T16:11:14;8.35;;;4.10;;
76138;SDS011;65138;50.946;7.074;2023-03-03T16:14:11;9.10;;;5.05;;
76138;SDS011;65138;50.946;7.074;2023-03-03T16:33:08;8.98;;;4.35;;
76138;SDS011;65138;50.946;7.074;2023-03-03T16:35:37;9.20;;;4.78;;
76138;SDS011;65138;50.946;7.074;2023-03-03T16:38:11;9.98;;;5.47;;
76138;SDS011;65138;50.946;7.074;2023-03-03T16:40:54;10.45;;;4.85;;
76138;SDS011;65138;50.946;7.074;2023-03-03T16:43:24;9.52;;;4.43;;
76138;SDS011;65138;50.946;7.074;2023-03-03T16:51:36;8.48;;;4.20;;
76138;SDS011;65138;50.946;7.074;2023-03-03T16:54:30;9.52;;;4.65;;
76138;SDS011;65138;50.946;7.074;2023-03-03T16:57:24;8.65;;;4.68;;
76138;SDS011;65138;50.946;7.074;2023-03-03T17:05:40;21.77;;;8.52;;
76138;SDS011;65138;50.946;7.074;2023-03-03T17:08:23;17.23;;;7.28;;
76138;SDS011;65138;50.946;7.074;2023-03-03T17:11:15;15.27;;;6.90;;
76138;SDS011;65138;50.946;7.074;2023-03-03T17:19:05;11.68;;;5.82;;
76138;SDS011;65138;50.946;7.074;2023-03-03T17:24:32;12.43;;;5.85;;
76138;SDS011;65138;50.946;7.074;2023-03-03T17:36:06;10.30;;;5.05;;
76138;SDS011;65138;50.946;7.074;2023-03-03T17:41:41;11.50;;;5.45;;
76138;SDS011;65138;50.946;7.074;2023-03-03T17:47:10;11.18;;;5.28;;
76138;SDS011;65138;50.946;7.074;2023-03-03T17:52:37;11.45;;;5.13;;
76138;SDS011;65138;50.946;7.074;2023-03-03T17:58:10;10.57;;;6.18;;
76138;SDS011;65138;50.946;7.074;2023-03-03T18:06:15;12.18;;;5.63;;
76138;SDS011;65138;50.946;7.074;2023-03-03T18:08:57;11.30;;;4.95;;
76138;SDS011;65138;50.946;7.074;2023-03-03T18:17:32;11.77;;;5.50;;
76138;SDS011;65138;50.946;7.074;2023-03-03T18:22:33;12.38;;;5.70;;
76138;SDS011;65138;50.946;7.074;2023-03-03T18:25:13;12.20;;;5.75;;
76138;SDS011;65138;50.946;7.074;2023-03-03T18:27:41;16.60;;;8.90;;
76138;SDS011;65138;50.946;7.074;2023-03-03T18:32:41;13.48;;;7.15;;
76138;SDS011;65138;50.946;7.074;2023-03-03T18:37:57;11.05;;;6.15;;
76138;SDS011;65138;50.946;7.074;2023-03-03T18:46:10;11.25;;;6.20;;
76138;SDS011;65138;50.946;7.074;2023-03-03T18:54:06;12.40;;;6.28;;
76138;SDS011;65138;50.946;7.074;2023-03-03T19:04:40;12.10;;;6.10;;
76138;SDS011;65138;50.946;7.074;2023-03-03T19:07:18;11.70;;;6.10;;
76138;SDS011;65138;50.946;7.074;2023-03-03T19:10:05;12.23;;;5.95;;
76138;SDS011;65138;50.946;7.074;2023-03-03T19:12:47;12.05;;;6.22;;
76138;SDS011;65138;50.946;7.074;2023-03-03T19:20:56;13.68;;;6.13;;
76138;SDS011;65138;50.946;7.074;2023-03-03T19:34:24;14.82;;;7.43;;
76138;SDS011;65138;50.946;7.074;2023-03-03T19:46:02;13.60;;;6.60;;
76138;SDS011;65138;50.946;7.074;2023-03-03T19:51:45;11.88;;;7.47;;
76138;SDS011;65138;50.946;7.074;2023-03-03T19:54:33;13.32;;;6.78;;
76138;SDS011;65138;50.946;7.074;2023-03-03T19:57:18;13.65;;;6.75;;
76138;SDS011;65138;50.946;7.074;2023-03-03T19:59:54;14.90;;;7.15;;
76138;SDS011;65138;50.946;7.074;2023-03-03T20:05:43;43.80;;;21.08;;
76138;SDS011;65138;50.946;7.074;2023-03-03T20:10:52;33.13;;;16.73;;
76138;SDS011;65138;50.946;7.074;2023-03-03T20:13:37;36.75;;;14.98;;
76138;SDS011;65138;50.946;7.074;2023-03-03T20:19:09;26.65;;;13.25;;
76138;SDS011;65138;50.946;7.074;2023-03-03T20:22:05;24.27;;;12.52;;
76138;SDS011;65138;50.946;7.074;2023-03-03T20:34:22;18.23;;;10.48;;
76138;SDS011;65138;50.946;7.074;2023-03-03T20:37:06;19.38;;;10.43;;
76138;SDS011;65138;50.946;7.074;2023-03-03T20:39:54;24.13;;;12.90;;
76138;SDS011;65138;50.946;7.074;2023-03-03T20:45:26;20.30;;;10.23;;
76138;SDS011;65138;50.946;7.074;2023-03-03T20:51:20;22.13;;;10.20;;
76138;SDS011;65138;50.946;7.074;2023-03-03T20:54:50;19.55;;;10.35;;
76138;SDS011;65138;50.946;7.074;2023-03-03T21:02:29;16.35;;;9.55;;
76138;SDS011;65138;50.946;7.074;2023-03-03T21:05:12;17.58;;;10.25;;
76138;SDS011;65138;50.946;7.074;2023-03-03T21:07:50;16.58;;;9.55;;
76138;SDS011;65138;50.946;7.074;2023-03-03T21:10:16;16.50;;;9.63;;
76138;SDS011;65138;50.946;7.074;2023-03-03T21:12:49;15.50;;;9.05;;
76138;SDS011;65138;50.946;7.074;2023-03-03T21:17:52;16.13;;;8.48;;
76138;SDS011;65138;50.946;7.074;2023-03-03T21:20:29;15.75;;;9.20;;
76138;SDS011;65138;50.946;7.074;2023-03-03T21:22:57;16.48;;;9.13;;
76138;SDS011;65138;50.946;7.074;2023-03-03T21:39:06;17.67;;;9.75;;
76138;SDS011;65138;50.946;7.074;2023-03-03T21:47:08;15.50;;;8.32;;
76138;SDS011;65138;50.946;7.074;2023-03-03T21:49:38;14.40;;;8.75;;
76138;SDS011;65138;50.946;7.074;2023-03-03T21:52:05;16.50;;;9.30;;
76138;SDS011;65138;50.946;7.074;2023-03-03T21:54:30;14.63;;;8.77;;
76138;SDS011;65138;50.946;7.074;2023-03-03T21:56:56;14.57;;;8.60;;